»·PEaware :: AAL8082 KSFO-KSNA

AAL8082 :: KSFO-KSNA

FLIGHT INFORMATION

Flight Status: Arrived
Operator:
American Airlines
More flights by this operator :: More flights under this callsign
Pilot: Dean L. (8400)
Aircraft: MCDONNELL-DOUGLAS MD-82
(MD82)
More flights by this aircraft type
Origin: KSFO San Francisco Intl
United States
Destination: KSNA John Wayne-Orange Co
United States
More flights between these airports :: More routes between these airports
Route: OFFSH2 MCKEY TILLT TILLT2
File this flight plan on PilotEdge
Remarks: RMK / SIMBRIEF
Altitude:
(Current/Filed)
33,000ft
Speed:
(Current/Filed)
445kts
Departed: 21-May-20 03:41 PM
Arrived: 21-May-20 04:46 PM
Distance/Time
Traveled:
323nm/1:05
Distance/Time
To Go:
Arrived

Flight Plot

Page will automatically refresh every two minutes.


Map Options




Map Legend


Flown Route
Filed Route
Departure Airport
Arrival Airport
Navaid (VOR, NDB)
Fix

Horizontal Profiles

Position Reports

Time Latitude Longitude Heading Altitude Ground
Speed
21-May-20 15:12 37.613189 -122.385409 66 22ft 0kts
21-May-20 15:13 37.613190 -122.385407 66 22ft 0kts
21-May-20 15:14 37.613191 -122.385404 66 22ft 0kts
21-May-20 15:15 37.613192 -122.385401 66 22ft 0kts
21-May-20 15:16 37.613193 -122.385397 66 22ft 0kts
21-May-20 15:17 37.613194 -122.385396 66 22ft 0kts
21-May-20 15:18 37.613195 -122.385394 66 22ft 0kts
21-May-20 15:19 37.613196 -122.385391 66 22ft 0kts
21-May-20 15:20 37.613197 -122.385388 66 22ft 0kts
21-May-20 15:21 37.613198 -122.385385 66 22ft 0kts
21-May-20 15:22 37.613199 -122.385382 66 22ft 0kts
21-May-20 15:23 37.613200 -122.385379 66 22ft 0kts
21-May-20 15:24 37.613201 -122.385376 66 22ft 0kts
21-May-20 15:25 37.613202 -122.385373 66 22ft 0kts
21-May-20 15:26 37.613203 -122.385370 66 22ft 0kts
21-May-20 15:27 37.613204 -122.385367 66 22ft 0kts
21-May-20 15:28 37.613205 -122.385364 66 22ft 0kts
21-May-20 15:29 37.613206 -122.385361 66 22ft 0kts
21-May-20 15:30 37.613207 -122.385358 66 22ft 0kts
21-May-20 15:31 37.613208 -122.385355 66 22ft 0kts
21-May-20 15:32 37.613209 -122.385352 66 22ft 0kts
21-May-20 15:33 37.613202 -122.385371 66 22ft 1kts
21-May-20 15:34 37.613204 -122.385698 354 22ft 1kts
21-May-20 15:35 37.610589 -122.389021 193 22ft 25kts
21-May-20 15:36 37.609380 -122.383967 122 22ft 9kts
21-May-20 15:37 37.609142 -122.383493 122 22ft 0kts
21-May-20 15:38 37.609141 -122.383490 122 22ft 0kts
21-May-20 15:39 37.609138 -122.383485 122 22ft 0kts
21-May-20 15:40 37.620279 -122.374911 23 24ft 160kts
21-May-20 15:41 37.666002 -122.360920 350 3151ft 173kts
21-May-20 15:42 37.714505 -122.384254 290 4750ft 229kts
21-May-20 15:43 37.691277 -122.465061 237 7069ft 266kts
21-May-20 15:44 37.648477 -122.541604 235 9897ft 271kts
21-May-20 15:45 37.596509 -122.629103 233 10180ft 354kts
21-May-20 15:46 37.500228 -122.672693 167 11037ft 415kts
21-May-20 15:47 37.399152 -122.626907 166 15818ft 372kts
21-May-20 15:48 37.293567 -122.601991 176 17830ft 393kts
21-May-20 15:49 37.182921 -122.590094 179 19885ft 406kts
21-May-20 15:50 37.067955 -122.579887 179 21827ft 420kts
21-May-20 15:51 36.949688 -122.569261 177 23554ft 434kts
21-May-20 15:52 36.829354 -122.539646 170 25148ft 448kts
21-May-20 15:53 36.706998 -122.503538 172 26722ft 457kts
21-May-20 15:54 36.581501 -122.470687 174 28196ft 465kts
21-May-20 15:55 36.453191 -122.438018 170 29488ft 478kts
21-May-20 15:57 36.346674 -122.334773 129 30890ft 506kts
21-May-20 15:58 36.263035 -122.194447 134 32199ft 505kts
21-May-20 15:59 36.169166 -122.064634 135 33163ft 511kts
21-May-20 16:00 36.077593 -121.930222 133 33166ft 505kts
21-May-20 16:01 36.010085 -121.832321 134 33159ft 505kts
21-May-20 16:02 35.918187 -121.700425 134 33156ft 506kts
21-May-20 16:03 35.826442 -121.569002 134 33140ft 506kts
21-May-20 16:04 35.734420 -121.438227 134 33121ft 505kts
21-May-20 16:05 35.642489 -121.307699 134 33085ft 504kts
21-May-20 16:06 35.550589 -121.177296 134 33071ft 503kts
21-May-20 16:07 35.464678 -121.041359 131 33070ft 506kts
21-May-20 16:08 35.372639 -120.912066 137 33070ft 502kts
21-May-20 16:09 35.269225 -120.799376 145 33073ft 496kts
21-May-20 16:10 35.163427 -120.689816 142 33071ft 498kts
21-May-20 16:11 35.060183 -120.577028 143 33065ft 497kts
21-May-20 16:12 34.948645 -120.480120 153 33088ft 489kts
21-May-20 16:13 34.833655 -120.391707 151 33086ft 491kts
21-May-20 16:13 34.738737 -120.314877 151 33088ft 491kts
21-May-20 16:15 34.606447 -120.207408 151 33088ft 489kts
21-May-20 16:15 34.511835 -120.131616 151 33088ft 488kts
21-May-20 16:16 34.398213 -120.041039 151 33088ft 488kts
21-May-20 16:18 34.265895 -119.935633 150 33088ft 489kts
21-May-20 16:18 34.171029 -119.859863 151 33088ft 488kts
21-May-20 16:19 34.063117 -119.760937 134 33094ft 498kts
21-May-20 16:20 33.989988 -119.617793 118 32775ft 501kts
21-May-20 16:21 33.918759 -119.472305 124 28830ft 501kts
21-May-20 16:22 33.851110 -119.339136 121 27443ft 446kts
21-May-20 16:23 33.789332 -119.212219 122 25840ft 432kts
21-May-20 16:24 33.728318 -119.089270 122 24239ft 421kts
21-May-20 16:25 33.668934 -118.969762 122 22065ft 417kts
21-May-20 16:26 33.610202 -118.851322 121 19070ft 406kts
21-May-20 16:27 33.565877 -118.731156 105 15522ft 385kts
21-May-20 16:28 33.544096 -118.609621 99 11729ft 360kts
21-May-20 16:29 33.526809 -118.495825 99 7930ft 333kts
21-May-20 16:30 33.519001 -118.395564 91 6270ft 261kts
21-May-20 16:31 33.523257 -118.311807 72 5096ft 258kts
21-May-20 16:32 33.549458 -118.232567 68 5026ft 254kts
21-May-20 16:33 33.578673 -118.154980 58 5017ft 256kts
21-May-20 16:34 33.617548 -118.087385 55 5000ft 238kts
21-May-20 16:35 33.654653 -118.022939 56 4992ft 234kts
21-May-20 16:36 33.691200 -117.958059 57 5359ft 235kts
21-May-20 16:37 33.742730 -117.914085 28 5981ft 206kts
21-May-20 16:38 33.794433 -117.883744 28 5426ft 213kts
21-May-20 16:39 33.850029 -117.849817 33 3747ft 233kts
21-May-20 16:40 33.854924 -117.790951 156 3029ft 183kts
21-May-20 16:41 33.811508 -117.808066 199 1839ft 164kts
21-May-20 16:42 33.768129 -117.820161 197 1673ft 162kts
21-May-20 16:43 33.726626 -117.836626 203 1025ft 156kts
21-May-20 16:44 33.688979 -117.860363 208 399ft 157kts
21-May-20 16:45 33.669334 -117.872135 122 65ft 0kts
21-May-20 16:46 33.669220 -117.871906 119 65ft 6kts
21-May-20 16:47 33.673617 -117.866793 35 65ft 24kts
21-May-20 16:48 33.679452 -117.862832 62 65ft 5kts
21-May-20 16:49 33.679350 -117.862449 117 65ft 0kts

Navigation Log

Ident Type
Flight plan parsing failed, navigation log unavailable